sensor_id;sensor_type;location;lat;lon;timestamp;P1;durP1;ratioP1;P2;durP2;ratioP2
3487;SDS011;38546;48.170;11.724;2022-12-22T00:02:25;5.17;;;4.03;;
3487;SDS011;38546;48.170;11.724;2022-12-22T00:05:34;3.27;;;3.00;;
3487;SDS011;38546;48.170;11.724;2022-12-22T00:08:42;4.67;;;2.93;;
3487;SDS011;38546;48.170;11.724;2022-12-22T00:11:51;3.07;;;2.77;;
3487;SDS011;38546;48.170;11.724;2022-12-22T00:15:00;3.80;;;3.20;;
3487;SDS011;38546;48.170;11.724;2022-12-22T00:18:13;3.83;;;3.53;;
3487;SDS011;38546;48.170;11.724;2022-12-22T00:21:22;2.80;;;2.70;;
3487;SDS011;38546;48.170;11.724;2022-12-22T00:24:31;4.67;;;3.33;;
3487;SDS011;38546;48.170;11.724;2022-12-22T00:27:39;9.57;;;3.60;;
3487;SDS011;38546;48.170;11.724;2022-12-22T00:30:48;2.60;;;2.40;;
3487;SDS011;38546;48.170;11.724;2022-12-22T00:33:56;3.57;;;2.70;;
3487;SDS011;38546;48.170;11.724;2022-12-22T00:37:04;2.60;;;2.40;;
3487;SDS011;38546;48.170;11.724;2022-12-22T00:40:25;3.37;;;3.07;;
3487;SDS011;38546;48.170;11.724;2022-12-22T00:43:34;4.30;;;3.30;;
3487;SDS011;38546;48.170;11.724;2022-12-22T00:46:42;3.00;;;2.80;;
3487;SDS011;38546;48.170;11.724;2022-12-22T00:49:52;6.87;;;3.90;;
3487;SDS011;38546;48.170;11.724;2022-12-22T00:53:00;6.23;;;3.17;;
3487;SDS011;38546;48.170;11.724;2022-12-22T00:56:09;2.67;;;2.53;;
3487;SDS011;38546;48.170;11.724;2022-12-22T00:59:17;4.10;;;3.37;;
3487;SDS011;38546;48.170;11.724;2022-12-22T01:02:25;3.87;;;3.40;;
3487;SDS011;38546;48.170;11.724;2022-12-22T01:05:34;3.23;;;2.90;;
3487;SDS011;38546;48.170;11.724;2022-12-22T01:08:42;4.40;;;2.60;;
3487;SDS011;38546;48.170;11.724;2022-12-22T01:11:51;4.57;;;4.17;;
3487;SDS011;38546;48.170;11.724;2022-12-22T01:15:00;5.90;;;3.40;;
3487;SDS011;38546;48.170;11.724;2022-12-22T01:18:08;3.07;;;2.87;;
3487;SDS011;38546;48.170;11.724;2022-12-22T01:21:17;2.40;;;2.30;;
3487;SDS011;38546;48.170;11.724;2022-12-22T01:24:26;2.77;;;2.63;;
3487;SDS011;38546;48.170;11.724;2022-12-22T01:27:37;2.47;;;2.33;;
3487;SDS011;38546;48.170;11.724;2022-12-22T01:30:46;2.80;;;2.60;;
3487;SDS011;38546;48.170;11.724;2022-12-22T01:33:54;3.23;;;3.00;;
3487;SDS011;38546;48.170;11.724;2022-12-22T01:37:02;2.97;;;2.73;;
3487;SDS011;38546;48.170;11.724;2022-12-22T01:40:15;3.90;;;2.77;;
3487;SDS011;38546;48.170;11.724;2022-12-22T01:43:30;2.40;;;2.30;;
3487;SDS011;38546;48.170;11.724;2022-12-22T01:46:41;3.87;;;3.33;;
3487;SDS011;38546;48.170;11.724;2022-12-22T01:49:52;2.10;;;2.00;;
3487;SDS011;38546;48.170;11.724;2022-12-22T01:53:04;3.37;;;2.50;;
3487;SDS011;38546;48.170;11.724;2022-12-22T01:56:27;2.63;;;2.43;;
3487;SDS011;38546;48.170;11.724;2022-12-22T01:59:36;2.33;;;2.13;;
3487;SDS011;38546;48.170;11.724;2022-12-22T02:02:44;2.50;;;2.37;;
3487;SDS011;38546;48.170;11.724;2022-12-22T02:06:05;4.57;;;2.83;;
3487;SDS011;38546;48.170;11.724;2022-12-22T02:16:14;2.73;;;2.53;;
3487;SDS011;38546;48.170;11.724;2022-12-22T02:19:56;2.80;;;2.60;;
3487;SDS011;38546;48.170;11.724;2022-12-22T02:23:39;2.57;;;2.37;;
3487;SDS011;38546;48.170;11.724;2022-12-22T02:27:13;2.83;;;2.60;;
3487;SDS011;38546;48.170;11.724;2022-12-22T02:30:24;3.20;;;3.00;;
3487;SDS011;38546;48.170;11.724;2022-12-22T02:33:34;4.40;;;2.80;;
3487;SDS011;38546;48.170;11.724;2022-12-22T02:36:55;3.47;;;3.10;;
3487;SDS011;38546;48.170;11.724;2022-12-22T02:40:35;2.83;;;2.63;;
3487;SDS011;38546;48.170;11.724;2022-12-22T02:44:10;3.23;;;2.80;;
3487;SDS011;38546;48.170;11.724;2022-12-22T02:48:02;5.30;;;2.50;;
3487;SDS011;38546;48.170;11.724;2022-12-22T02:51:17;3.20;;;2.50;;
3487;SDS011;38546;48.170;11.724;2022-12-22T02:54:30;2.80;;;2.50;;
3487;SDS011;38546;48.170;11.724;2022-12-22T02:57:40;2.40;;;2.30;;
3487;SDS011;38546;48.170;11.724;2022-12-22T03:00:48;2.90;;;2.50;;
3487;SDS011;38546;48.170;11.724;2022-12-22T03:03:57;2.60;;;2.40;;
3487;SDS011;38546;48.170;11.724;2022-12-22T03:07:05;2.80;;;2.60;;
3487;SDS011;38546;48.170;11.724;2022-12-22T03:10:13;2.40;;;2.00;;
3487;SDS011;38546;48.170;11.724;2022-12-22T03:13:22;5.70;;;2.93;;
3487;SDS011;38546;48.170;11.724;2022-12-22T03:16:30;2.00;;;1.90;;
3487;SDS011;38546;48.170;11.724;2022-12-22T03:19:39;2.27;;;2.17;;
3487;SDS011;38546;48.170;11.724;2022-12-22T03:22:46;2.10;;;2.00;;
3487;SDS011;38546;48.170;11.724;2022-12-22T03:25:55;2.20;;;2.10;;
3487;SDS011;38546;48.170;11.724;2022-12-22T03:28:44;3.17;;;2.30;;
3487;SDS011;38546;48.170;11.724;2022-12-22T03:31:33;3.10;;;2.40;;
3487;SDS011;38546;48.170;11.724;2022-12-22T03:34:23;2.07;;;1.97;;
3487;SDS011;38546;48.170;11.724;2022-12-22T03:37:13;1.70;;;1.60;;
3487;SDS011;38546;48.170;11.724;2022-12-22T03:40:02;1.83;;;1.73;;
3487;SDS011;38546;48.170;11.724;2022-12-22T03:42:53;4.33;;;2.60;;
3487;SDS011;38546;48.170;11.724;2022-12-22T03:46:01;1.90;;;1.80;;
3487;SDS011;38546;48.170;11.724;2022-12-22T03:49:10;1.93;;;1.80;;
3487;SDS011;38546;48.170;11.724;2022-12-22T03:51:59;2.70;;;1.80;;
3487;SDS011;38546;48.170;11.724;2022-12-22T03:54:48;1.40;;;1.40;;
3487;SDS011;38546;48.170;11.724;2022-12-22T03:57:40;4.00;;;2.40;;
3487;SDS011;38546;48.170;11.724;2022-12-22T04:00:29;2.87;;;2.07;;
3487;SDS011;38546;48.170;11.724;2022-12-22T04:03:19;2.10;;;2.00;;
3487;SDS011;38546;48.170;11.724;2022-12-22T04:06:08;1.50;;;1.50;;
3487;SDS011;38546;48.170;11.724;2022-12-22T04:08:57;1.50;;;1.50;;
3487;SDS011;38546;48.170;11.724;2022-12-22T04:11:47;2.20;;;2.10;;
3487;SDS011;38546;48.170;11.724;2022-12-22T04:14:54;1.97;;;1.87;;
3487;SDS011;38546;48.170;11.724;2022-12-22T04:17:44;2.60;;;2.40;;
3487;SDS011;38546;48.170;11.724;2022-12-22T04:20:33;2.47;;;2.30;;
3487;SDS011;38546;48.170;11.724;2022-12-22T04:23:22;2.60;;;2.40;;
3487;SDS011;38546;48.170;11.724;2022-12-22T04:26:11;4.17;;;2.17;;
3487;SDS011;38546;48.170;11.724;2022-12-22T04:29:00;2.97;;;2.60;;
3487;SDS011;38546;48.170;11.724;2022-12-22T04:31:49;3.80;;;2.10;;
3487;SDS011;38546;48.170;11.724;2022-12-22T04:34:39;3.70;;;1.90;;
3487;SDS011;38546;48.170;11.724;2022-12-22T04:37:28;4.00;;;2.07;;
3487;SDS011;38546;48.170;11.724;2022-12-22T04:40:17;2.40;;;2.30;;
3487;SDS011;38546;48.170;11.724;2022-12-22T04:43:06;4.73;;;2.20;;
3487;SDS011;38546;48.170;11.724;2022-12-22T04:45:56;2.43;;;2.23;;
3487;SDS011;38546;48.170;11.724;2022-12-22T04:48:45;2.57;;;2.37;;
3487;SDS011;38546;48.170;11.724;2022-12-22T04:51:35;2.90;;;2.70;;
3487;SDS011;38546;48.170;11.724;2022-12-22T04:54:24;3.80;;;2.17;;
3487;SDS011;38546;48.170;11.724;2022-12-22T04:57:14;3.03;;;2.10;;
3487;SDS011;38546;48.170;11.724;2022-12-22T05:00:05;2.73;;;2.40;;
3487;SDS011;38546;48.170;11.724;2022-12-22T05:02:56;3.40;;;2.63;;
3487;SDS011;38546;48.170;11.724;2022-12-22T05:05:45;2.70;;;2.50;;
3487;SDS011;38546;48.170;11.724;2022-12-22T05:08:34;2.67;;;2.47;;
3487;SDS011;38546;48.170;11.724;2022-12-22T05:11:24;2.50;;;2.30;;
3487;SDS011;38546;48.170;11.724;2022-12-22T05:14:13;2.50;;;2.30;;
3487;SDS011;38546;48.170;11.724;2022-12-22T05:17:03;2.33;;;2.20;;
3487;SDS011;38546;48.170;11.724;2022-12-22T05:19:52;2.90;;;2.10;;
3487;SDS011;38546;48.170;11.724;2022-12-22T05:22:42;3.03;;;2.60;;
3487;SDS011;38546;48.170;11.724;2022-12-22T05:25:32;1.93;;;1.83;;
3487;SDS011;38546;48.170;11.724;2022-12-22T05:28:21;1.70;;;1.60;;
3487;SDS011;38546;48.170;11.724;2022-12-22T05:31:14;2.47;;;2.27;;
3487;SDS011;38546;48.170;11.724;2022-12-22T05:34:05;2.80;;;2.50;;
3487;SDS011;38546;48.170;11.724;2022-12-22T05:36:54;2.90;;;2.70;;
3487;SDS011;38546;48.170;11.724;2022-12-22T05:39:44;2.83;;;2.23;;
3487;SDS011;38546;48.170;11.724;2022-12-22T05:42:33;11.70;;;5.10;;
3487;SDS011;38546;48.170;11.724;2022-12-22T05:45:25;3.77;;;2.60;;
3487;SDS011;38546;48.170;11.724;2022-12-22T05:48:14;2.60;;;2.40;;
3487;SDS011;38546;48.170;11.724;2022-12-22T05:51:04;3.07;;;2.87;;
3487;SDS011;38546;48.170;11.724;2022-12-22T05:53:54;2.70;;;2.50;;
3487;SDS011;38546;48.170;11.724;2022-12-22T05:56:43;2.30;;;2.07;;
3487;SDS011;38546;48.170;11.724;2022-12-22T05:59:32;2.27;;;2.17;;
3487;SDS011;38546;48.170;11.724;2022-12-22T06:02:22;2.93;;;2.10;;
3487;SDS011;38546;48.170;11.724;2022-12-22T06:05:12;2.83;;;1.90;;
3487;SDS011;38546;48.170;11.724;2022-12-22T06:08:02;2.60;;;2.33;;
3487;SDS011;38546;48.170;11.724;2022-12-22T06:10:53;4.70;;;2.60;;
3487;SDS011;38546;48.170;11.724;2022-12-22T06:13:44;3.10;;;2.70;;
3487;SDS011;38546;48.170;11.724;2022-12-22T06:16:34;2.17;;;2.07;;
3487;SDS011;38546;48.170;11.724;2022-12-22T06:19:23;1.73;;;1.73;;
3487;SDS011;38546;48.170;11.724;2022-12-22T06:22:13;2.13;;;2.03;;
3487;SDS011;38546;48.170;11.724;2022-12-22T06:25:03;5.20;;;2.30;;
3487;SDS011;38546;48.170;11.724;2022-12-22T06:27:53;3.87;;;3.10;;
3487;SDS011;38546;48.170;11.724;2022-12-22T06:30:42;3.13;;;2.67;;
3487;SDS011;38546;48.170;11.724;2022-12-22T06:33:31;2.37;;;2.20;;
3487;SDS011;38546;48.170;11.724;2022-12-22T06:36:21;3.40;;;2.53;;
3487;SDS011;38546;48.170;11.724;2022-12-22T06:39:12;1.97;;;1.87;;
3487;SDS011;38546;48.170;11.724;2022-12-22T06:42:03;2.07;;;1.90;;
3487;SDS011;38546;48.170;11.724;2022-12-22T06:45:10;3.80;;;2.13;;
3487;SDS011;38546;48.170;11.724;2022-12-22T06:48:00;6.63;;;2.00;;
3487;SDS011;38546;48.170;11.724;2022-12-22T06:50:49;3.00;;;2.10;;
3487;SDS011;38546;48.170;11.724;2022-12-22T06:53:38;2.30;;;1.90;;
3487;SDS011;38546;48.170;11.724;2022-12-22T06:56:27;1.60;;;1.60;;
3487;SDS011;38546;48.170;11.724;2022-12-22T06:59:16;2.40;;;2.20;;
3487;SDS011;38546;48.170;11.724;2022-12-22T07:02:05;2.83;;;2.57;;
3487;SDS011;38546;48.170;11.724;2022-12-22T07:04:54;5.07;;;2.57;;
3487;SDS011;38546;48.170;11.724;2022-12-22T07:07:43;2.83;;;2.63;;
3487;SDS011;38546;48.170;11.724;2022-12-22T07:10:32;2.50;;;2.30;;
3487;SDS011;38546;48.170;11.724;2022-12-22T07:13:40;1.70;;;1.70;;
3487;SDS011;38546;48.170;11.724;2022-12-22T07:16:30;4.03;;;2.33;;
3487;SDS011;38546;48.170;11.724;2022-12-22T07:19:20;2.20;;;2.00;;
3487;SDS011;38546;48.170;11.724;2022-12-22T07:22:09;2.17;;;2.07;;
3487;SDS011;38546;48.170;11.724;2022-12-22T07:24:58;5.20;;;2.20;;
3487;SDS011;38546;48.170;11.724;2022-12-22T07:27:48;2.00;;;1.80;;
3487;SDS011;38546;48.170;11.724;2022-12-22T07:30:36;1.63;;;1.53;;
3487;SDS011;38546;48.170;11.724;2022-12-22T07:33:25;1.83;;;1.70;;
3487;SDS011;38546;48.170;11.724;2022-12-22T07:36:15;2.50;;;1.93;;
3487;SDS011;38546;48.170;11.724;2022-12-22T07:39:07;1.57;;;1.57;;
3487;SDS011;38546;48.170;11.724;2022-12-22T07:41:58;2.30;;;1.63;;
3487;SDS011;38546;48.170;11.724;2022-12-22T07:45:06;2.00;;;1.13;;
3487;SDS011;38546;48.170;11.724;2022-12-22T07:47:58;2.33;;;1.30;;
3487;SDS011;38546;48.170;11.724;2022-12-22T07:50:48;1.77;;;1.30;;
3487;SDS011;38546;48.170;11.724;2022-12-22T07:53:38;3.23;;;1.10;;
3487;SDS011;38546;48.170;11.724;2022-12-22T07:56:28;1.40;;;1.27;;
3487;SDS011;38546;48.170;11.724;2022-12-22T07:59:17;1.67;;;1.57;;
3487;SDS011;38546;48.170;11.724;2022-12-22T08:02:09;2.13;;;1.37;;
3487;SDS011;38546;48.170;11.724;2022-12-22T08:04:59;1.10;;;1.10;;
3487;SDS011;38546;48.170;11.724;2022-12-22T08:07:48;3.13;;;1.40;;
3487;SDS011;38546;48.170;11.724;2022-12-22T08:10:40;4.73;;;1.10;;
3487;SDS011;38546;48.170;11.724;2022-12-22T08:13:29;1.57;;;1.30;;
3487;SDS011;38546;48.170;11.724;2022-12-22T08:16:19;1.80;;;1.23;;
3487;SDS011;38546;48.170;11.724;2022-12-22T08:19:09;2.87;;;1.10;;
3487;SDS011;38546;48.170;11.724;2022-12-22T08:21:58;2.10;;;1.10;;
3487;SDS011;38546;48.170;11.724;2022-12-22T08:24:49;1.23;;;1.10;;
3487;SDS011;38546;48.170;11.724;2022-12-22T08:27:46;4.50;;;0.97;;
3487;SDS011;38546;48.170;11.724;2022-12-22T08:30:39;1.20;;;1.20;;
3487;SDS011;38546;48.170;11.724;2022-12-22T08:33:29;4.37;;;1.10;;
3487;SDS011;38546;48.170;11.724;2022-12-22T08:36:18;1.60;;;1.50;;
3487;SDS011;38546;48.170;11.724;2022-12-22T08:39:08;1.43;;;1.07;;
3487;SDS011;38546;48.170;11.724;2022-12-22T08:41:58;1.47;;;1.13;;
3487;SDS011;38546;48.170;11.724;2022-12-22T08:44:49;2.47;;;1.20;;
3487;SDS011;38546;48.170;11.724;2022-12-22T08:47:42;1.47;;;1.33;;
3487;SDS011;38546;48.170;11.724;2022-12-22T08:50:31;1.23;;;1.13;;
3487;SDS011;38546;48.170;11.724;2022-12-22T08:53:20;2.00;;;1.07;;
3487;SDS011;38546;48.170;11.724;2022-12-22T08:56:11;1.17;;;1.00;;
3487;SDS011;38546;48.170;11.724;2022-12-22T08:59:02;1.73;;;1.00;;
3487;SDS011;38546;48.170;11.724;2022-12-22T09:01:52;2.30;;;1.13;;
3487;SDS011;38546;48.170;11.724;2022-12-22T09:04:41;6.53;;;0.97;;
3487;SDS011;38546;48.170;11.724;2022-12-22T09:07:31;1.53;;;0.90;;
3487;SDS011;38546;48.170;11.724;2022-12-22T09:10:20;3.60;;;0.70;;
3487;SDS011;38546;48.170;11.724;2022-12-22T09:13:10;1.33;;;0.90;;
3487;SDS011;38546;48.170;11.724;2022-12-22T09:16:03;1.73;;;1.50;;
3487;SDS011;38546;48.170;11.724;2022-12-22T09:18:57;1.30;;;1.20;;
3487;SDS011;38546;48.170;11.724;2022-12-22T09:21:47;1.57;;;1.10;;
3487;SDS011;38546;48.170;11.724;2022-12-22T09:24:36;1.17;;;1.07;;
3487;SDS011;38546;48.170;11.724;2022-12-22T09:27:26;1.33;;;0.97;;
3487;SDS011;38546;48.170;11.724;2022-12-22T09:30:17;1.00;;;1.00;;
3487;SDS011;38546;48.170;11.724;2022-12-22T09:33:06;1.83;;;1.03;;
3487;SDS011;38546;48.170;11.724;2022-12-22T09:35:56;1.93;;;1.07;;
3487;SDS011;38546;48.170;11.724;2022-12-22T09:38:46;2.57;;;1.33;;
3487;SDS011;38546;48.170;11.724;2022-12-22T09:41:44;0.83;;;0.80;;
3487;SDS011;38546;48.170;11.724;2022-12-22T09:44:46;2.73;;;0.90;;
3487;SDS011;38546;48.170;11.724;2022-12-22T09:47:38;1.23;;;1.10;;
3487;SDS011;38546;48.170;11.724;2022-12-22T09:50:28;2.70;;;1.00;;
3487;SDS011;38546;48.170;11.724;2022-12-22T09:53:21;2.03;;;1.27;;
3487;SDS011;38546;48.170;11.724;2022-12-22T09:56:12;1.03;;;0.80;;
3487;SDS011;38546;48.170;11.724;2022-12-22T09:59:11;5.37;;;1.80;;
3487;SDS011;38546;48.170;11.724;2022-12-22T10:02:11;1.60;;;1.30;;
3487;SDS011;38546;48.170;11.724;2022-12-22T10:10:11;4.50;;;2.13;;
3487;SDS011;38546;48.170;11.724;2022-12-22T10:13:16;2.00;;;1.20;;
3487;SDS011;38546;48.170;11.724;2022-12-22T10:16:16;1.50;;;1.40;;
3487;SDS011;38546;48.170;11.724;2022-12-22T10:19:15;1.23;;;1.23;;
3487;SDS011;38546;48.170;11.724;2022-12-22T10:22:16;2.17;;;1.27;;
3487;SDS011;38546;48.170;11.724;2022-12-22T10:26:02;0.90;;;0.90;;
3487;SDS011;38546;48.170;11.724;2022-12-22T10:29:04;2.90;;;2.70;;
3487;SDS011;38546;48.170;11.724;2022-12-22T10:32:05;2.83;;;1.30;;
3487;SDS011;38546;48.170;11.724;2022-12-22T10:35:04;1.90;;;1.70;;
3487;SDS011;38546;48.170;11.724;2022-12-22T10:37:54;1.27;;;1.27;;
3487;SDS011;38546;48.170;11.724;2022-12-22T10:40:43;4.47;;;1.47;;
3487;SDS011;38546;48.170;11.724;2022-12-22T10:43:36;1.47;;;1.37;;
3487;SDS011;38546;48.170;11.724;2022-12-22T10:46:33;4.47;;;1.30;;
3487;SDS011;38546;48.170;11.724;2022-12-22T10:49:32;1.50;;;1.20;;
3487;SDS011;38546;48.170;11.724;2022-12-22T10:52:27;2.37;;;1.50;;
3487;SDS011;38546;48.170;11.724;2022-12-22T10:55:19;2.47;;;1.70;;
3487;SDS011;38546;48.170;11.724;2022-12-22T10:58:16;1.73;;;1.37;;
3487;SDS011;38546;48.170;11.724;2022-12-22T11:01:09;1.60;;;1.10;;
3487;SDS011;38546;48.170;11.724;2022-12-22T11:07:15;1.27;;;1.27;;
3487;SDS011;38546;48.170;11.724;2022-12-22T11:19:17;3.67;;;1.23;;
3487;SDS011;38546;48.170;11.724;2022-12-22T11:24:10;2.50;;;1.00;;
3487;SDS011;38546;48.170;11.724;2022-12-22T11:27:34;4.30;;;1.03;;
3487;SDS011;38546;48.170;11.724;2022-12-22T11:43:35;3.03;;;1.20;;
3487;SDS011;38546;48.170;11.724;2022-12-22T11:47:12;4.27;;;1.50;;
3487;SDS011;38546;48.170;11.724;2022-12-22T11:50:41;3.63;;;1.07;;
3487;SDS011;38546;48.170;11.724;2022-12-22T11:53:51;3.83;;;1.67;;
3487;SDS011;38546;48.170;11.724;2022-12-22T11:57:20;4.37;;;1.40;;
3487;SDS011;38546;48.170;11.724;2022-12-22T12:00:36;2.80;;;1.47;;
3487;SDS011;38546;48.170;11.724;2022-12-22T12:03:50;4.43;;;1.47;;
3487;SDS011;38546;48.170;11.724;2022-12-22T12:07:37;5.10;;;1.67;;
3487;SDS011;38546;48.170;11.724;2022-12-22T12:10:37;3.47;;;1.70;;
3487;SDS011;38546;48.170;11.724;2022-12-22T12:13:42;4.67;;;1.50;;
3487;SDS011;38546;48.170;11.724;2022-12-22T12:16:56;1.20;;;1.17;;
3487;SDS011;38546;48.170;11.724;2022-12-22T12:20:10;2.13;;;1.27;;
3487;SDS011;38546;48.170;11.724;2022-12-22T12:23:34;4.30;;;1.80;;
3487;SDS011;38546;48.170;11.724;2022-12-22T12:31:21;2.73;;;1.20;;
3487;SDS011;38546;48.170;11.724;2022-12-22T12:34:21;6.57;;;1.93;;
3487;SDS011;38546;48.170;11.724;2022-12-22T12:37:26;3.90;;;1.40;;
3487;SDS011;38546;48.170;11.724;2022-12-22T12:40:31;2.33;;;2.10;;
3487;SDS011;38546;48.170;11.724;2022-12-22T12:43:43;4.03;;;1.17;;
3487;SDS011;38546;48.170;11.724;2022-12-22T12:46:53;2.37;;;1.33;;
3487;SDS011;38546;48.170;11.724;2022-12-22T12:49:57;1.83;;;1.73;;
3487;SDS011;38546;48.170;11.724;2022-12-22T12:53:25;8.70;;;1.63;;
3487;SDS011;38546;48.170;11.724;2022-12-22T12:56:53;3.67;;;2.20;;
3487;SDS011;38546;48.170;11.724;2022-12-22T13:01:54;3.93;;;1.90;;
3487;SDS011;38546;48.170;11.724;2022-12-22T13:10:05;12.40;;;2.23;;
3487;SDS011;38546;48.170;11.724;2022-12-22T13:13:50;4.30;;;1.23;;
3487;SDS011;38546;48.170;11.724;2022-12-22T13:16:40;4.80;;;2.83;;
3487;SDS011;38546;48.170;11.724;2022-12-22T13:19:30;1.23;;;0.90;;
3487;SDS011;38546;48.170;11.724;2022-12-22T13:22:20;2.40;;;1.40;;
3487;SDS011;38546;48.170;11.724;2022-12-22T13:25:13;6.50;;;1.43;;
3487;SDS011;38546;48.170;11.724;2022-12-22T13:28:04;7.30;;;1.80;;
3487;SDS011;38546;48.170;11.724;2022-12-22T13:31:00;3.60;;;2.13;;
3487;SDS011;38546;48.170;11.724;2022-12-22T13:38:36;5.13;;;1.60;;
3487;SDS011;38546;48.170;11.724;2022-12-22T13:41:25;3.33;;;1.53;;
3487;SDS011;38546;48.170;11.724;2022-12-22T13:44:18;10.33;;;1.50;;
3487;SDS011;38546;48.170;11.724;2022-12-22T13:47:15;4.43;;;1.50;;
3487;SDS011;38546;48.170;11.724;2022-12-22T13:50:05;5.77;;;1.83;;
3487;SDS011;38546;48.170;11.724;2022-12-22T13:53:06;6.73;;;1.57;;
3487;SDS011;38546;48.170;11.724;2022-12-22T13:55:57;5.67;;;1.53;;
3487;SDS011;38546;48.170;11.724;2022-12-22T13:58:52;4.27;;;1.87;;
3487;SDS011;38546;48.170;11.724;2022-12-22T14:01:50;4.47;;;1.50;;
3487;SDS011;38546;48.170;11.724;2022-12-22T14:05:02;9.77;;;1.70;;
3487;SDS011;38546;48.170;11.724;2022-12-22T14:08:00;1.37;;;1.27;;
3487;SDS011;38546;48.170;11.724;2022-12-22T14:10:53;2.93;;;1.33;;
3487;SDS011;38546;48.170;11.724;2022-12-22T14:13:43;4.00;;;1.80;;
3487;SDS011;38546;48.170;11.724;2022-12-22T14:16:33;2.57;;;1.60;;
3487;SDS011;38546;48.170;11.724;2022-12-22T14:19:23;6.30;;;2.00;;
3487;SDS011;38546;48.170;11.724;2022-12-22T14:22:15;7.17;;;2.20;;
3487;SDS011;38546;48.170;11.724;2022-12-22T14:25:15;2.77;;;1.80;;
3487;SDS011;38546;48.170;11.724;2022-12-22T14:34:43;13.23;;;1.90;;
3487;SDS011;38546;48.170;11.724;2022-12-22T14:37:41;12.47;;;1.90;;
3487;SDS011;38546;48.170;11.724;2022-12-22T14:40:35;2.57;;;1.87;;
3487;SDS011;38546;48.170;11.724;2022-12-22T14:43:29;9.47;;;2.80;;
3487;SDS011;38546;48.170;11.724;2022-12-22T14:46:19;5.40;;;2.00;;
3487;SDS011;38546;48.170;11.724;2022-12-22T14:49:13;9.23;;;2.30;;
3487;SDS011;38546;48.170;11.724;2022-12-22T14:52:07;7.97;;;2.37;;
3487;SDS011;38546;48.170;11.724;2022-12-22T14:55:27;5.27;;;1.93;;
3487;SDS011;38546;48.170;11.724;2022-12-22T14:58:32;6.13;;;2.20;;
3487;SDS011;38546;48.170;11.724;2022-12-22T15:01:27;4.33;;;2.50;;
3487;SDS011;38546;48.170;11.724;2022-12-22T15:04:17;12.07;;;2.87;;
3487;SDS011;38546;48.170;11.724;2022-12-22T15:07:15;8.73;;;3.60;;
3487;SDS011;38546;48.170;11.724;2022-12-22T15:10:07;9.80;;;2.33;;
3487;SDS011;38546;48.170;11.724;2022-12-22T15:12:58;15.50;;;3.70;;
3487;SDS011;38546;48.170;11.724;2022-12-22T15:15:51;9.47;;;3.23;;
3487;SDS011;38546;48.170;11.724;2022-12-22T15:18:41;7.60;;;2.43;;
3487;SDS011;38546;48.170;11.724;2022-12-22T15:21:31;3.77;;;1.87;;
3487;SDS011;38546;48.170;11.724;2022-12-22T15:24:22;8.57;;;2.50;;
3487;SDS011;38546;48.170;11.724;2022-12-22T15:27:12;6.27;;;1.80;;
3487;SDS011;38546;48.170;11.724;2022-12-22T15:30:00;3.63;;;1.90;;
3487;SDS011;38546;48.170;11.724;2022-12-22T15:32:49;2.70;;;2.00;;
3487;SDS011;38546;48.170;11.724;2022-12-22T15:35:39;9.23;;;2.00;;
3487;SDS011;38546;48.170;11.724;2022-12-22T15:38:29;5.07;;;1.73;;
3487;SDS011;38546;48.170;11.724;2022-12-22T15:41:18;6.13;;;1.80;;
3487;SDS011;38546;48.170;11.724;2022-12-22T15:44:08;3.27;;;1.60;;
3487;SDS011;38546;48.170;11.724;2022-12-22T15:46:57;8.50;;;2.43;;
3487;SDS011;38546;48.170;11.724;2022-12-22T15:49:46;6.60;;;2.90;;
3487;SDS011;38546;48.170;11.724;2022-12-22T15:52:35;11.10;;;2.20;;
3487;SDS011;38546;48.170;11.724;2022-12-22T15:55:25;7.03;;;2.23;;
3487;SDS011;38546;48.170;11.724;2022-12-22T15:58:16;13.13;;;2.17;;
3487;SDS011;38546;48.170;11.724;2022-12-22T16:01:09;6.27;;;2.10;;
3487;SDS011;38546;48.170;11.724;2022-12-22T16:03:59;5.70;;;1.90;;
3487;SDS011;38546;48.170;11.724;2022-12-22T16:06:48;9.07;;;2.40;;
3487;SDS011;38546;48.170;11.724;2022-12-22T16:09:39;11.20;;;2.93;;
3487;SDS011;38546;48.170;11.724;2022-12-22T16:12:31;7.60;;;1.80;;
3487;SDS011;38546;48.170;11.724;2022-12-22T16:15:21;2.40;;;1.70;;
3487;SDS011;38546;48.170;11.724;2022-12-22T16:18:11;5.73;;;1.20;;
3487;SDS011;38546;48.170;11.724;2022-12-22T16:21:03;1.80;;;1.50;;
3487;SDS011;38546;48.170;11.724;2022-12-22T16:23:59;6.70;;;1.90;;
3487;SDS011;38546;48.170;11.724;2022-12-22T16:26:51;3.43;;;2.03;;
3487;SDS011;38546;48.170;11.724;2022-12-22T16:29:42;7.47;;;2.30;;
3487;SDS011;38546;48.170;11.724;2022-12-22T16:32:35;4.30;;;1.60;;
3487;SDS011;38546;48.170;11.724;2022-12-22T16:35:26;5.03;;;2.60;;
3487;SDS011;38546;48.170;11.724;2022-12-22T16:38:16;5.10;;;2.10;;
3487;SDS011;38546;48.170;11.724;2022-12-22T16:41:10;9.30;;;1.70;;
3487;SDS011;38546;48.170;11.724;2022-12-22T16:44:15;7.93;;;2.10;;
3487;SDS011;38546;48.170;11.724;2022-12-22T16:47:17;4.43;;;1.73;;
3487;SDS011;38546;48.170;11.724;2022-12-22T16:50:15;3.07;;;1.60;;
3487;SDS011;38546;48.170;11.724;2022-12-22T16:53:08;2.53;;;2.33;;
3487;SDS011;38546;48.170;11.724;2022-12-22T16:55:59;12.80;;;2.20;;
3487;SDS011;38546;48.170;11.724;2022-12-22T16:58:48;9.90;;;2.30;;
3487;SDS011;38546;48.170;11.724;2022-12-22T17:01:39;11.73;;;2.50;;
3487;SDS011;38546;48.170;11.724;2022-12-22T17:04:33;5.97;;;2.57;;
3487;SDS011;38546;48.170;11.724;2022-12-22T17:07:22;2.90;;;2.43;;
3487;SDS011;38546;48.170;11.724;2022-12-22T17:10:13;3.33;;;1.93;;
3487;SDS011;38546;48.170;11.724;2022-12-22T17:13:03;8.77;;;3.10;;
3487;SDS011;38546;48.170;11.724;2022-12-22T17:15:52;7.13;;;3.10;;
3487;SDS011;38546;48.170;11.724;2022-12-22T17:18:41;6.50;;;2.53;;
3487;SDS011;38546;48.170;11.724;2022-12-22T17:21:30;4.60;;;2.27;;
3487;SDS011;38546;48.170;11.724;2022-12-22T17:24:20;7.27;;;2.40;;
3487;SDS011;38546;48.170;11.724;2022-12-22T17:27:10;13.33;;;2.30;;
3487;SDS011;38546;48.170;11.724;2022-12-22T17:30:02;5.43;;;2.27;;
3487;SDS011;38546;48.170;11.724;2022-12-22T17:33:01;6.30;;;1.87;;
3487;SDS011;38546;48.170;11.724;2022-12-22T17:35:50;5.97;;;2.57;;
3487;SDS011;38546;48.170;11.724;2022-12-22T17:38:40;4.43;;;2.17;;
3487;SDS011;38546;48.170;11.724;2022-12-22T17:41:30;6.47;;;2.50;;
3487;SDS011;38546;48.170;11.724;2022-12-22T17:44:21;5.17;;;2.10;;
3487;SDS011;38546;48.170;11.724;2022-12-22T17:47:12;6.50;;;2.43;;
3487;SDS011;38546;48.170;11.724;2022-12-22T17:50:04;5.43;;;2.20;;
3487;SDS011;38546;48.170;11.724;2022-12-22T17:52:55;3.60;;;2.20;;
3487;SDS011;38546;48.170;11.724;2022-12-22T17:55:46;1.90;;;1.80;;
3487;SDS011;38546;48.170;11.724;2022-12-22T17:58:36;4.97;;;2.23;;
3487;SDS011;38546;48.170;11.724;2022-12-22T18:01:26;9.13;;;2.03;;
3487;SDS011;38546;48.170;11.724;2022-12-22T18:04:19;4.40;;;2.20;;
3487;SDS011;38546;48.170;11.724;2022-12-22T18:07:09;4.20;;;1.90;;
3487;SDS011;38546;48.170;11.724;2022-12-22T18:09:58;7.40;;;3.10;;
3487;SDS011;38546;48.170;11.724;2022-12-22T18:12:48;2.63;;;1.83;;
3487;SDS011;38546;48.170;11.724;2022-12-22T18:15:39;4.50;;;1.90;;
3487;SDS011;38546;48.170;11.724;2022-12-22T18:18:28;6.00;;;2.60;;
3487;SDS011;38546;48.170;11.724;2022-12-22T18:21:19;2.13;;;1.80;;
3487;SDS011;38546;48.170;11.724;2022-12-22T18:24:13;8.57;;;2.20;;
3487;SDS011;38546;48.170;11.724;2022-12-22T18:27:04;2.87;;;2.20;;
3487;SDS011;38546;48.170;11.724;2022-12-22T18:29:59;9.57;;;3.00;;
3487;SDS011;38546;48.170;11.724;2022-12-22T18:32:49;6.10;;;2.63;;
3487;SDS011;38546;48.170;11.724;2022-12-22T18:35:40;7.97;;;2.50;;
3487;SDS011;38546;48.170;11.724;2022-12-22T18:38:31;5.77;;;2.70;;
3487;SDS011;38546;48.170;11.724;2022-12-22T18:41:23;12.47;;;2.03;;
3487;SDS011;38546;48.170;11.724;2022-12-22T18:44:17;2.60;;;2.40;;
3487;SDS011;38546;48.170;11.724;2022-12-22T18:47:07;3.13;;;2.10;;
3487;SDS011;38546;48.170;11.724;2022-12-22T18:49:59;2.50;;;2.30;;
3487;SDS011;38546;48.170;11.724;2022-12-22T18:52:50;7.83;;;2.80;;